Time;durP1;ratioP1;P1;durP2;ratioP2;P2;SDS_P1;SDS_P2;PMS_P1;PMS_P2;Temp;Humidity;BMP_temperature;BMP_pressure;BME280_temperature;BME280_humidity;BME280_pressure;Samples;Min_cycle;Max_cycle;Signal;HPM_P1;HPM_P2
2022/03/19 00:01:43;;;;;;;12.30;5.03;;;9.70;99.90;;;;;;5077499;28;20040;-60
2022/03/19 00:04:09;;;;;;;11.48;5.18;;;9.70;99.90;;;;;;5077498;28;20029;-60
2022/03/19 00:06:38;;;;;;;7.93;4.90;;;9.60;99.90;;;;;;5077402;28;20029;-60
2022/03/19 00:09:06;;;;;;;10.65;5.65;;;9.60;99.90;;;;;;5076707;28;20021;-60
2022/03/19 00:11:32;;;;;;;9.07;5.30;;;9.60;99.90;;;;;;5077248;28;20017;-60
2022/03/19 00:13:58;;;;;;;9.88;5.55;;;9.70;99.90;;;;;;5077304;28;20105;-59
2022/03/19 00:16:27;;;;;;;8.80;5.30;;;9.80;99.90;;;;;;5077343;28;20265;-60
2022/03/19 00:18:52;;;;;;;12.98;5.40;;;9.70;99.90;;;;;;5076646;28;20036;-60
2022/03/19 00:21:18;;;;;;;9.38;5.30;;;9.70;99.90;;;;;;5077251;28;20041;-60
2022/03/19 00:23:45;;;;;;;11.35;5.50;;;9.80;99.90;;;;;;5077208;28;20336;-60
2022/03/19 00:26:11;;;;;;;9.60;6.03;;;9.70;99.90;;;;;;5077128;28;20365;-59
2022/03/19 00:28:38;;;;;;;10.60;5.53;;;9.70;99.90;;;;;;5077067;28;20371;-60
2022/03/19 00:31:05;;;;;;;8.48;5.60;;;9.70;99.90;;;;;;5077136;28;20070;-60
2022/03/19 00:33:30;;;;;;;9.32;5.60;;;9.60;99.90;;;;;;5076622;28;20037;-60
2022/03/19 00:35:56;;;;;;;8.38;5.68;;;9.50;99.90;;;;;;5059424;28;20044;-60
2022/03/19 00:38:22;;;;;;;9.38;4.95;;;9.50;99.90;;;;;;5077029;28;20410;-60
2022/03/19 00:40:49;;;;;;;10.55;5.68;;;9.50;99.90;;;;;;5076616;28;20036;-60
2022/03/19 00:43:16;;;;;;;11.25;5.63;;;9.50;99.90;;;;;;5077321;28;20454;-59
2022/03/19 00:45:42;;;;;;;10.38;5.63;;;9.50;99.90;;;;;;5076868;28;20345;-59
2022/03/19 00:48:08;;;;;;;7.43;5.40;;;9.50;99.90;;;;;;5059607;28;20056;-59
2022/03/19 00:50:34;;;;;;;8.52;5.18;;;9.50;99.90;;;;;;5076630;28;20107;-59
2022/03/19 00:53:00;;;;;;;9.90;5.78;;;9.50;99.90;;;;;;5076891;28;20047;-59
2022/03/19 00:55:25;;;;;;;12.63;5.90;;;9.40;99.90;;;;;;5076841;28;20085;-60
2022/03/19 00:57:51;;;;;;;8.80;5.95;;;9.50;99.90;;;;;;5077198;28;20311;-59
2022/03/19 01:00:24;;;;;;;9.05;5.70;;;9.50;99.90;;;;;;5076791;28;20107;-59
2022/03/19 01:02:51;;;;;;;10.63;6.05;;;9.40;99.90;;;;;;5076853;28;20041;-60
2022/03/19 01:05:17;;;;;;;10.70;6.07;;;9.40;99.90;;;;;;5076782;28;20062;-59
2022/03/19 01:07:49;;;;;;;9.02;5.68;;;9.40;99.90;;;;;;5076743;28;20020;-59
2022/03/19 01:10:17;;;;;;;12.80;5.82;;;9.40;99.90;;;;;;5076795;28;20029;-59
2022/03/19 01:12:43;;;;;;;8.50;5.68;;;9.40;99.90;;;;;;5076693;28;20032;-59
2022/03/19 01:15:10;;;;;;;11.40;6.18;;;9.30;99.90;;;;;;5076704;28;20020;-60
2022/03/19 01:17:37;;;;;;;8.60;5.72;;;9.40;99.90;;;;;;5075868;28;20032;-60
2022/03/19 01:20:03;;;;;;;8.38;5.88;;;9.40;99.90;;;;;;5076585;28;20021;-60
2022/03/19 01:22:31;;;;;;;12.85;5.65;;;9.40;99.90;;;;;;5076470;28;20360;-60
2022/03/19 01:25:00;;;;;;;10.13;5.80;;;9.20;99.90;;;;;;5076803;28;20293;-60
2022/03/19 01:27:26;;;;;;;9.77;5.53;;;9.30;99.90;;;;;;5059536;28;20337;-61
2022/03/19 01:29:52;;;;;;;8.13;5.55;;;9.30;99.90;;;;;;5076544;28;20166;-60
2022/03/19 01:32:17;;;;;;;10.10;5.97;;;9.30;99.90;;;;;;5075771;28;20086;-60
2022/03/19 01:34:43;;;;;;;7.78;5.78;;;9.30;99.90;;;;;;5075829;28;20137;-61
2022/03/19 01:37:09;;;;;;;8.70;5.32;;;9.30;99.90;;;;;;5075688;28;20025;-60
2022/03/19 01:39:35;;;;;;;12.10;5.72;;;9.20;99.90;;;;;;5076299;28;20052;-60
2022/03/19 01:42:01;;;;;;;8.90;6.32;;;9.20;99.90;;;;;;5075658;28;20392;-61
2022/03/19 01:44:27;;;;;;;10.95;5.47;;;9.10;99.90;;;;;;5075627;28;20108;-60
2022/03/19 01:46:54;;;;;;;11.45;6.38;;;9.10;99.90;;;;;;5079576;28;20036;-61
2022/03/19 01:49:20;;;;;;;10.00;6.43;;;9.00;99.90;;;;;;5079318;28;20396;-60
2022/03/19 01:51:46;;;;;;;10.02;6.18;;;8.90;99.90;;;;;;5045348;28;20109;-60
2022/03/19 01:54:12;;;;;;;14.07;6.40;;;9.00;99.90;;;;;;5079171;28;20030;-60
2022/03/19 01:56:39;;;;;;;10.45;6.72;;;9.00;99.90;;;;;;5062727;28;20408;-60
2022/03/19 01:59:07;;;;;;;11.07;6.28;;;8.90;99.90;;;;;;5079285;28;20032;-60
2022/03/19 02:01:34;;;;;;;11.70;7.05;;;8.80;99.90;;;;;;5079834;28;20092;-60
2022/03/19 02:04:00;;;;;;;12.63;7.05;;;8.80;99.90;;;;;;5079170;28;20163;-60
2022/03/19 02:06:28;;;;;;;10.30;6.78;;;8.90;99.90;;;;;;5079728;28;20047;-60
2022/03/19 02:08:54;;;;;;;10.80;6.82;;;8.80;99.90;;;;;;5079734;28;20025;-60
2022/03/19 02:11:20;;;;;;;13.05;7.20;;;8.80;99.90;;;;;;5079919;28;20300;-61
2022/03/19 02:13:47;;;;;;;11.55;7.45;;;8.80;99.90;;;;;;5078953;28;20035;-60
2022/03/19 02:16:13;;;;;;;9.45;7.30;;;8.70;99.90;;;;;;5079879;28;20048;-60
2022/03/19 02:18:38;;;;;;;12.77;7.63;;;8.70;99.90;;;;;;5079072;28;20058;-60
2022/03/19 02:21:05;;;;;;;9.43;7.18;;;8.80;99.90;;;;;;5079594;28;20078;-60
2022/03/19 02:26:17;;;;;;;9.85;7.57;;;8.60;99.90;;;;;;5079598;28;20301;-60
2022/03/19 02:28:42;;;;;;;13.10;7.10;;;8.60;99.90;;;;;;5078597;28;20032;-60
2022/03/19 02:31:08;;;;;;;11.60;7.18;;;8.60;99.90;;;;;;5079402;28;20407;-61
2022/03/19 02:33:34;;;;;;;11.75;7.90;;;8.60;99.90;;;;;;5078663;28;20028;-60
2022/03/19 02:36:00;;;;;;;12.63;7.78;;;8.60;99.90;;;;;;5079636;28;20140;-60
2022/03/19 02:38:25;;;;;;;11.27;7.95;;;8.50;99.90;;;;;;5079033;28;20415;-60
2022/03/19 02:40:51;;;;;;;12.52;7.75;;;8.40;99.90;;;;;;5078974;28;20029;-60
2022/03/19 02:43:17;;;;;;;9.48;6.68;;;8.40;99.90;;;;;;5079353;28;20029;-59
2022/03/19 02:45:46;;;;;;;12.18;8.20;;;8.50;99.90;;;;;;5079563;28;20029;-59
2022/03/19 02:48:12;;;;;;;10.68;7.40;;;8.50;99.90;;;;;;5079319;28;20384;-60
2022/03/19 02:50:39;;;;;;;12.55;7.70;;;8.50;99.90;;;;;;5078796;28;20028;-60
2022/03/19 02:53:10;;;;;;;11.52;8.18;;;8.30;99.90;;;;;;5060911;28;20032;-61
2022/03/19 02:55:38;;;;;;;11.00;7.97;;;8.20;99.90;;;;;;5078296;28;20043;-61
2022/03/19 02:58:06;;;;;;;11.07;7.30;;;8.30;99.90;;;;;;5077877;28;20384;-61
2022/03/19 03:00:32;;;;;;;11.95;7.85;;;8.30;99.90;;;;;;5078093;28;20460;-59
2022/03/19 03:03:00;;;;;;;14.15;8.70;;;8.30;99.90;;;;;;5077945;28;20111;-60
2022/03/19 03:05:25;;;;;;;17.35;8.63;;;8.30;99.90;;;;;;5078953;28;20060;-60
2022/03/19 03:07:51;;;;;;;11.23;8.35;;;8.30;99.90;;;;;;5079003;28;20028;-60
2022/03/19 03:10:18;;;;;;;13.27;8.50;;;8.20;99.90;;;;;;5078630;28;20029;-60
2022/03/19 03:12:44;;;;;;;13.23;8.40;;;8.20;99.90;;;;;;5077765;28;20106;-59
2022/03/19 03:15:10;;;;;;;14.30;9.00;;;8.20;99.90;;;;;;5078777;28;20052;-59
2022/03/19 03:17:37;;;;;;;11.95;8.07;;;8.10;99.90;;;;;;5077598;28;20055;-59
2022/03/19 03:20:03;;;;;;;12.02;8.38;;;8.00;99.90;;;;;;5077462;28;20032;-61
2022/03/19 03:22:31;;;;;;;15.10;9.00;;;8.00;99.90;;;;;;5077699;28;20039;-60
2022/03/19 03:24:57;;;;;;;15.25;8.55;;;8.00;99.90;;;;;;5077642;28;20404;-59
2022/03/19 03:27:23;;;;;;;14.75;8.20;;;7.90;99.90;;;;;;5077337;28;20086;-60
2022/03/19 03:29:49;;;;;;;13.70;8.57;;;7.80;99.90;;;;;;5077425;28;20036;-60
2022/03/19 03:32:15;;;;;;;12.77;8.82;;;7.70;99.90;;;;;;5077516;28;20059;-60
2022/03/19 03:34:42;;;;;;;13.35;8.80;;;7.70;99.90;;;;;;5060837;28;20115;-60
2022/03/19 03:37:08;;;;;;;13.90;9.10;;;7.80;99.90;;;;;;5077490;28;20046;-60
2022/03/19 03:39:34;;;;;;;14.73;8.63;;;7.70;99.90;;;;;;5077297;28;20109;-60
2022/03/19 03:42:00;;;;;;;13.85;9.00;;;7.70;99.90;;;;;;5077990;28;20040;-60
2022/03/19 03:44:26;;;;;;;10.68;8.20;;;7.70;99.90;;;;;;5078222;28;20066;-60
2022/03/19 03:46:52;;;;;;;13.25;8.98;;;7.70;99.90;;;;;;5077272;28;20036;-60
2022/03/19 03:49:18;;;;;;;15.27;10.25;;;7.70;99.90;;;;;;5077748;28;20032;-60
2022/03/19 03:51:44;;;;;;;14.13;9.00;;;7.70;99.90;;;;;;5077661;28;20111;-60
2022/03/19 03:54:10;;;;;;;12.80;8.68;;;7.80;99.90;;;;;;5077711;28;20105;-60
2022/03/19 03:56:36;;;;;;;14.38;9.30;;;7.80;99.90;;;;;;5077621;28;20111;-60
2022/03/19 03:59:02;;;;;;;12.80;8.57;;;7.70;99.90;;;;;;5076915;28;20293;-60
2022/03/19 04:01:28;;;;;;;13.40;8.93;;;7.60;99.90;;;;;;5076118;28;20056;-60
2022/03/19 04:03:53;;;;;;;14.95;9.15;;;7.70;99.90;;;;;;5077489;28;20036;-61
2022/03/19 04:06:19;;;;;;;13.30;8.95;;;7.60;99.90;;;;;;5077443;28;20040;-60
2022/03/19 04:08:45;;;;;;;13.00;9.10;;;7.70;99.90;;;;;;5075873;28;20046;-60
2022/03/19 04:11:11;;;;;;;13.30;9.43;;;7.70;99.90;;;;;;5077396;28;20028;-60
2022/03/19 04:13:36;;;;;;;16.02;9.50;;;7.60;99.90;;;;;;5059278;28;20056;-60
2022/03/19 04:16:02;;;;;;;14.32;9.45;;;7.60;99.90;;;;;;5077383;28;20415;-60
2022/03/19 04:18:28;;;;;;;13.50;9.55;;;7.50;99.90;;;;;;5077283;28;20043;-60
2022/03/19 04:20:54;;;;;;;11.20;8.23;;;7.40;99.90;;;;;;5077181;28;20289;-59
2022/03/19 04:23:20;;;;;;;14.60;9.65;;;7.50;99.90;;;;;;5076690;28;20059;-59
2022/03/19 04:25:46;;;;;;;19.75;9.38;;;7.40;99.90;;;;;;5076376;28;20040;-59
2022/03/19 04:28:12;;;;;;;16.50;9.32;;;7.50;99.90;;;;;;5077178;28;20024;-60
2022/03/19 04:30:40;;;;;;;13.93;9.25;;;7.40;99.90;;;;;;5076352;28;20047;-60
2022/03/19 04:33:05;;;;;;;14.90;9.18;;;7.40;99.90;;;;;;5077067;28;20387;-60
2022/03/19 04:38:18;;;;;;;19.85;9.98;;;7.30;99.90;;;;;;5076320;28;20281;-60
2022/03/19 04:40:46;;;;;;;14.80;9.85;;;7.30;99.90;;;;;;5077033;28;20396;-60
2022/03/19 04:43:12;;;;;;;15.15;10.07;;;7.20;99.90;;;;;;5076247;28;20401;-60
2022/03/19 04:45:40;;;;;;;15.82;9.48;;;7.20;99.90;;;;;;5076889;28;20323;-60
2022/03/19 04:48:06;;;;;;;14.43;9.73;;;7.30;99.90;;;;;;5077261;28;20122;-61
2022/03/19 04:50:43;;;;;;;15.63;9.65;;;7.20;99.90;;;;;;5076809;28;20021;-60
2022/03/19 04:53:09;;;;;;;15.88;8.98;;;7.20;99.90;;;;;;5076757;28;20027;-60
2022/03/19 04:55:36;;;;;;;16.10;9.57;;;7.20;99.90;;;;;;5076739;28;20051;-60
2022/03/19 04:58:03;;;;;;;14.55;9.52;;;7.20;99.90;;;;;;5076707;28;20037;-61
2022/03/19 05:00:29;;;;;;;15.45;9.80;;;7.10;99.90;;;;;;5076709;28;20354;-60
2022/03/19 05:02:55;;;;;;;15.13;9.88;;;7.10;99.90;;;;;;5076666;28;20029;-60
2022/03/19 05:05:24;;;;;;;15.55;9.93;;;7.20;99.90;;;;;;5059102;28;20039;-60
2022/03/19 05:07:52;;;;;;;13.63;9.95;;;7.10;99.90;;;;;;5075909;28;20039;-60
2022/03/19 05:13:03;;;;;;;12.57;9.40;;;7.10;99.90;;;;;;5076534;28;20044;-60
2022/03/19 05:15:28;;;;;;;15.77;10.45;;;7.20;99.90;;;;;;5076532;28;20068;-60
2022/03/19 05:17:54;;;;;;;14.77;10.07;;;7.20;99.90;;;;;;5076841;28;20375;-60
2022/03/19 05:20:20;;;;;;;12.13;9.60;;;7.00;99.90;;;;;;5077055;28;20384;-60
2022/03/19 05:22:46;;;;;;;15.45;9.90;;;6.90;99.90;;;;;;5080460;28;20021;-60
2022/03/19 05:25:12;;;;;;;18.58;10.15;;;7.00;99.90;;;;;;5080464;28;20032;-61
2022/03/19 05:27:38;;;;;;;18.20;10.05;;;6.90;99.90;;;;;;5080341;28;20087;-61
2022/03/19 05:30:05;;;;;;;19.25;10.35;;;6.90;99.90;;;;;;5080559;28;20028;-60
2022/03/19 05:32:31;;;;;;;17.33;10.63;;;6.90;99.90;;;;;;5079599;28;20452;-61
2022/03/19 05:34:58;;;;;;;16.08;9.88;;;6.90;99.90;;;;;;5079712;28;20111;-60
2022/03/19 05:37:24;;;;;;;12.85;9.48;;;7.00;99.90;;;;;;5079659;28;20029;-60
2022/03/19 05:39:50;;;;;;;15.73;10.48;;;7.00;99.90;;;;;;5079433;28;20419;-60
2022/03/19 05:42:16;;;;;;;14.23;9.85;;;6.90;99.90;;;;;;5080222;28;20045;-61
2022/03/19 05:44:42;;;;;;;15.10;10.25;;;6.90;99.90;;;;;;5080223;28;20281;-61
2022/03/19 05:47:08;;;;;;;15.43;10.35;;;6.80;99.90;;;;;;5079977;28;20047;-61
2022/03/19 05:49:34;;;;;;;16.25;10.60;;;6.80;99.90;;;;;;5079288;28;20086;-61
2022/03/19 05:52:03;;;;;;;16.25;10.40;;;6.70;99.90;;;;;;5079953;28;20395;-60
2022/03/19 05:54:29;;;;;;;14.27;10.00;;;6.70;99.90;;;;;;5079725;28;20051;-60
2022/03/19 05:56:55;;;;;;;16.83;10.38;;;6.80;99.90;;;;;;5079692;28;20055;-60
2022/03/19 05:59:21;;;;;;;15.75;10.57;;;6.80;99.90;;;;;;5079769;28;20032;-60
2022/03/19 06:01:47;;;;;;;14.60;10.40;;;6.70;99.90;;;;;;5078290;28;20036;-61
2022/03/19 06:04:15;;;;;;;15.27;10.73;;;6.80;99.90;;;;;;5079739;28;20051;-61
2022/03/19 06:06:42;;;;;;;14.43;10.13;;;6.80;99.90;;;;;;5080258;28;20364;-60
2022/03/19 06:09:07;;;;;;;17.70;10.57;;;6.80;99.90;;;;;;5079514;28;20052;-61
2022/03/19 06:11:33;;;;;;;16.45;11.02;;;6.90;99.90;;;;;;5079598;28;20051;-61
2022/03/19 06:13:59;;;;;;;16.48;11.02;;;6.80;99.90;;;;;;5078763;28;20119;-61
2022/03/19 06:16:26;;;;;;;15.70;10.73;;;6.80;99.90;;;;;;5080058;28;20296;-61
2022/03/19 06:18:52;;;;;;;16.42;11.15;;;6.80;99.90;;;;;;5079401;28;20331;-59
2022/03/19 06:21:23;;;;;;;17.08;10.27;;;6.90;99.90;;;;;;5079420;28;20035;-59
2022/03/19 06:23:50;;;;;;;14.00;10.30;;;6.90;99.90;;;;;;5079429;28;20051;-60
2022/03/19 06:26:17;;;;;;;16.67;10.98;;;6.80;99.90;;;;;;5079306;28;20039;-59
2022/03/19 06:28:44;;;;;;;15.52;10.77;;;6.80;99.90;;;;;;5078669;28;20092;-59
2022/03/19 06:31:10;;;;;;;14.57;10.48;;;6.80;99.90;;;;;;5079132;28;20016;-61
2022/03/19 06:33:40;;;;;;;17.17;10.98;;;6.70;99.90;;;;;;5078359;28;20437;-60
2022/03/19 06:38:50;;;;;;;16.88;11.15;;;6.90;99.90;;;;;;5079017;28;20131;-60
2022/03/19 06:41:16;;;;;;;18.08;10.88;;;6.90;99.90;;;;;;5079135;28;20151;-60
2022/03/19 06:43:43;;;;;;;16.13;11.13;;;6.80;99.90;;;;;;5078979;28;20418;-60
2022/03/19 06:46:09;;;;;;;15.00;10.90;;;6.90;99.90;;;;;;5078920;28;20036;-60
2022/03/19 06:48:35;;;;;;;15.88;10.80;;;7.00;99.90;;;;;;5079105;28;20028;-60
2022/03/19 06:51:01;;;;;;;13.57;10.88;;;7.00;99.90;;;;;;5078780;28;20028;-60
2022/03/19 06:53:27;;;;;;;15.88;11.55;;;7.10;99.90;;;;;;5078866;28;20024;-60
2022/03/19 06:55:54;;;;;;;17.92;11.35;;;7.20;99.90;;;;;;5078814;28;20028;-60
2022/03/19 06:58:21;;;;;;;17.05;10.70;;;7.20;99.90;;;;;;5078809;28;20029;-60
2022/03/19 07:00:47;;;;;;;19.50;10.85;;;7.20;99.90;;;;;;5078014;28;20029;-61
2022/03/19 07:03:13;;;;;;;16.30;10.50;;;7.20;99.90;;;;;;5078586;28;20095;-61
2022/03/19 07:05:39;;;;;;;17.58;10.52;;;7.20;99.90;;;;;;5078479;28;20128;-60
2022/03/19 07:08:08;;;;;;;13.90;9.98;;;7.30;99.90;;;;;;5078727;28;20025;-60
2022/03/19 07:10:35;;;;;;;18.08;10.25;;;7.40;99.90;;;;;;5078388;28;20063;-60
2022/03/19 07:13:01;;;;;;;18.88;10.07;;;7.50;99.90;;;;;;5077687;28;20115;-60
2022/03/19 07:15:28;;;;;;;16.33;10.05;;;7.50;99.90;;;;;;5078503;28;20025;-61
2022/03/19 07:17:56;;;;;;;12.85;9.63;;;7.60;99.90;;;;;;5078850;28;20040;-60
2022/03/19 07:20:22;;;;;;;16.83;10.82;;;7.70;99.90;;;;;;5077381;28;20021;-58
2022/03/19 07:23:00;;;;;;;14.60;10.10;;;7.80;99.90;;;;;;5078209;28;20056;-60
2022/03/19 07:25:28;;;;;;;16.48;10.38;;;8.00;99.90;;;;;;5078307;28;20021;-60
2022/03/19 07:27:57;;;;;;;14.60;9.23;;;8.10;99.90;;;;;;5077976;28;20101;-60
2022/03/19 07:30:24;;;;;;;15.20;9.40;;;8.10;99.90;;;;;;5078208;28;20040;-60
2022/03/19 07:32:50;;;;;;;16.70;9.43;;;8.20;99.90;;;;;;5078102;28;20377;-59
2022/03/19 07:35:16;;;;;;;11.02;8.50;;;8.20;99.90;;;;;;5078061;28;20025;-59
2022/03/19 07:37:44;;;;;;;15.63;8.88;;;8.20;99.90;;;;;;5077942;28;20107;-60
2022/03/19 07:40:13;;;;;;;13.70;9.48;;;8.40;99.90;;;;;;5077015;28;20056;-59
2022/03/19 07:42:39;;;;;;;12.20;9.35;;;8.50;99.90;;;;;;5077922;28;20087;-59
2022/03/19 07:45:07;;;;;;;10.32;8.90;;;8.50;99.90;;;;;;5076915;28;20032;-60
2022/03/19 07:47:34;;;;;;;13.27;8.65;;;8.60;99.90;;;;;;5076952;28;20040;-60
2022/03/19 07:50:05;;;;;;;12.15;8.55;;;8.70;99.90;;;;;;5077298;28;20106;-60
2022/03/19 07:52:33;;;;;;;15.43;7.95;;;8.80;99.90;;;;;;5077032;28;20320;-59
2022/03/19 07:54:58;;;;;;;11.95;8.60;;;8.80;99.90;;;;;;5078097;28;20131;-60
2022/03/19 07:57:25;;;;;;;13.18;8.27;;;8.90;99.90;;;;;;5076924;28;20039;-61
2022/03/19 07:59:54;;;;;;;12.80;7.80;;;9.00;99.90;;;;;;5060208;28;20438;-61
2022/03/19 08:02:23;;;;;;;15.25;7.75;;;9.20;99.90;;;;;;5060843;28;20044;-61
2022/03/19 08:04:49;;;;;;;11.88;7.78;;;9.30;99.90;;;;;;5043729;28;20087;-60
2022/03/19 08:07:15;;;;;;;13.18;8.13;;;9.50;99.90;;;;;;5060227;28;20052;-61
2022/03/19 08:09:42;;;;;;;12.32;6.70;;;9.60;99.90;;;;;;5076946;28;20042;-60
2022/03/19 08:12:09;;;;;;;9.73;6.85;;;9.40;99.90;;;;;;5076450;28;20407;-60
2022/03/19 08:14:36;;;;;;;11.05;7.15;;;9.40;99.90;;;;;;5077327;28;20029;-61
2022/03/19 08:17:02;;;;;;;11.30;6.47;;;9.40;99.90;;;;;;5077383;28;20116;-60
2022/03/19 08:19:28;;;;;;;10.85;6.68;;;9.60;99.90;;;;;;5077252;28;20067;-58
2022/03/19 08:21:54;;;;;;;10.32;6.72;;;9.80;99.90;;;;;;5077163;28;20024;-59
2022/03/19 08:24:23;;;;;;;12.63;6.68;;;9.90;99.90;;;;;;5076983;28;20178;-59
2022/03/19 08:26:51;;;;;;;9.13;5.80;;;10.00;99.90;;;;;;5077310;28;20036;-59
2022/03/19 08:29:18;;;;;;;8.98;6.00;;;10.10;99.90;;;;;;5076208;28;20355;-59
2022/03/19 08:31:43;;;;;;;11.15;5.75;;;10.00;99.90;;;;;;5076818;28;20036;-59
2022/03/19 08:34:09;;;;;;;9.40;5.55;;;10.20;99.90;;;;;;5076032;28;20033;-59
2022/03/19 08:36:35;;;;;;;9.27;5.32;;;10.30;99.90;;;;;;5059634;28;20056;-60
2022/03/19 08:41:45;;;;;;;6.25;5.05;;;10.30;99.90;;;;;;5076916;28;20043;-60
2022/03/19 08:44:11;;;;;;;9.60;5.18;;;10.30;99.90;;;;;;5076168;28;20056;-58
2022/03/19 08:46:37;;;;;;;8.10;5.40;;;10.50;99.90;;;;;;5076509;28;20130;-60
2022/03/19 08:49:04;;;;;;;7.35;5.28;;;10.50;99.90;;;;;;5075938;28;20403;-59
2022/03/19 08:51:39;;;;;;;6.88;4.57;;;10.50;99.90;;;;;;5075928;28;20124;-60
2022/03/19 08:54:09;;;;;;;10.93;4.70;;;10.60;99.90;;;;;;5075906;28;20044;-59
2022/03/19 08:56:36;;;;;;;9.15;5.47;;;10.70;99.90;;;;;;5076750;28;20101;-59
2022/03/19 08:59:03;;;;;;;9.32;4.97;;;10.80;99.90;;;;;;5075695;28;20032;-59
2022/03/19 09:01:29;;;;;;;6.22;4.03;;;10.80;99.90;;;;;;5075715;28;20044;-59
2022/03/19 09:03:54;;;;;;;9.60;4.55;;;11.00;99.90;;;;;;5076493;28;20040;-60
2022/03/19 09:06:21;;;;;;;9.98;4.28;;;11.00;99.90;;;;;;5076408;28;20381;-60
2022/03/19 09:08:50;;;;;;;8.25;3.88;;;11.00;99.90;;;;;;5076625;28;20074;-60
2022/03/19 09:11:18;;;;;;;8.27;4.82;;;11.10;99.90;;;;;;5076469;28;20024;-60
2022/03/19 09:13:47;;;;;;;8.60;4.80;;;11.20;99.90;;;;;;5059004;28;20028;-59
2022/03/19 09:16:14;;;;;;;8.82;4.72;;;11.30;99.90;;;;;;5076305;28;20111;-59
2022/03/19 09:18:39;;;;;;;7.65;4.75;;;11.40;99.90;;;;;;5075704;28;20095;-60
2022/03/19 09:21:06;;;;;;;10.05;4.80;;;11.40;99.90;;;;;;5075741;28;20357;-59
2022/03/19 09:23:31;;;;;;;9.95;4.88;;;11.40;99.90;;;;;;5076512;28;20040;-59
2022/03/19 09:25:58;;;;;;;11.05;4.55;;;11.50;99.90;;;;;;5076369;28;20131;-59
2022/03/19 09:28:24;;;;;;;8.18;4.50;;;11.50;99.90;;;;;;5075635;28;20036;-59
2022/03/19 09:30:50;;;;;;;10.80;5.10;;;11.60;99.90;;;;;;5076228;28;20017;-59
2022/03/19 09:33:15;;;;;;;9.98;4.93;;;11.70;99.90;;;;;;5075676;28;20029;-58
2022/03/19 09:35:41;;;;;;;8.85;4.72;;;11.60;99.90;;;;;;5076462;28;20040;-58
2022/03/19 09:38:07;;;;;;;8.05;4.70;;;11.70;99.90;;;;;;5076226;28;20028;-60
2022/03/19 09:40:33;;;;;;;7.28;4.97;;;11.70;99.90;;;;;;5075542;28;20082;-59
2022/03/19 09:42:59;;;;;;;6.80;4.60;;;11.70;99.90;;;;;;5075637;28;20037;-58
2022/03/19 09:45:26;;;;;;;8.25;5.28;;;11.80;99.90;;;;;;5075867;28;20384;-58
2022/03/19 09:47:54;;;;;;;8.27;4.38;;;11.90;99.90;;;;;;5075347;28;20273;-58
2022/03/19 09:50:21;;;;;;;8.65;4.75;;;12.00;99.90;;;;;;5076157;28;20032;-58
2022/03/19 09:52:51;;;;;;;7.55;4.60;;;11.90;99.90;;;;;;5076274;28;20115;-59
2022/03/19 09:55:18;;;;;;;9.10;4.53;;;11.80;99.90;;;;;;5075625;28;20039;-59
2022/03/19 09:57:45;;;;;;;13.23;4.82;;;11.80;99.90;;;;;;5076203;28;20086;-58
2022/03/19 10:00:12;;;;;;;9.60;5.07;;;12.00;99.90;;;;;;5076193;28;20032;-58
2022/03/19 10:02:51;;;;;;;7.10;4.60;;;12.00;99.90;;;;;;5076103;28;20089;-58
2022/03/19 10:10:47;;;;;;;7.15;3.80;;;12.40;99.90;;;;;;5079923;28;20037;-59
2022/03/19 10:13:13;;;;;;;10.38;4.15;;;12.40;99.90;;;;;;5078912;28;20384;-59
2022/03/19 10:15:43;;;;;;;6.22;3.92;;;12.60;99.90;;;;;;5079666;28;20110;-58
2022/03/19 10:18:10;;;;;;;8.35;4.13;;;12.70;99.90;;;;;;5079478;28;20119;-62
2022/03/19 10:20:37;;;;;;;9.23;4.28;;;12.80;99.90;;;;;;5079520;28;20120;-58
2022/03/19 10:23:04;;;;;;;7.13;3.80;;;12.90;99.90;;;;;;5079348;28;20123;-61
2022/03/19 10:25:31;;;;;;;10.45;4.63;;;13.10;99.90;;;;;;5079228;28;20032;-60
2022/03/19 10:28:01;;;;;;;9.02;4.00;;;13.30;99.90;;;;;;5079760;28;20017;-58
2022/03/19 10:30:40;;;;;;;7.63;4.43;;;13.30;99.90;;;;;;5079468;28;20052;-58
2022/03/19 10:33:10;;;;;;;6.05;3.65;;;13.40;99.90;;;;;;5079262;28;20440;-59
2022/03/19 10:35:39;;;;;;;7.63;3.70;;;13.60;99.90;;;;;;5078604;28;20025;-59
2022/03/19 10:38:23;;;;;;;6.40;3.58;;;14.00;99.90;;;;;;5062220;28;20111;-60
2022/03/19 10:40:52;;;;;;;7.70;3.22;;;14.40;99.90;;;;;;5079394;28;20037;-60
2022/03/19 10:43:22;;;;;;;7.47;3.53;;;15.00;99.90;;;;;;5079116;28;20107;-59
2022/03/19 10:45:50;;;;;;;6.07;3.15;;;15.50;99.90;;;;;;5079328;28;20372;-60
2022/03/19 10:48:21;;;;;;;8.32;3.03;;;15.70;99.90;;;;;;5079223;28;20074;-60
2022/03/19 10:50:48;;;;;;;6.32;2.90;;;15.90;99.90;;;;;;5079027;28;20020;-59
2022/03/19 10:53:14;;;;;;;6.72;3.35;;;15.60;99.90;;;;;;5078858;28;20411;-60
2022/03/19 10:55:40;;;;;;;5.22;3.10;;;15.70;99.90;;;;;;5078419;28;20396;-59
2022/03/19 10:58:08;;;;;;;5.70;3.17;;;15.80;99.90;;;;;;5078123;28;20051;-59
2022/03/19 11:00:37;;;;;;;7.30;3.22;;;15.60;99.90;;;;;;5078679;28;20086;-59
2022/03/19 11:03:27;;;;;;;4.25;2.90;;;16.00;99.90;;;;;;5077992;28;20037;-59
2022/03/19 11:05:58;;;;;;;6.22;2.58;;;16.00;99.90;;;;;;5077799;28;20415;-59
2022/03/19 11:08:24;;;;;;;4.38;2.33;;;16.40;99.90;;;;;;5078831;28;20071;-58
2022/03/19 11:10:57;;;;;;;5.50;2.63;;;16.70;99.20;;;;;;5061023;28;20056;-58
2022/03/19 11:13:25;;;;;;;4.20;2.67;;;17.20;97.80;;;;;;5077728;28;20024;-58
2022/03/19 11:15:55;;;;;;;6.30;2.97;;;16.90;97.40;;;;;;5078498;28;20063;-58
2022/03/19 11:18:22;;;;;;;4.80;2.42;;;17.10;96.50;;;;;;5077167;28;20448;-60
2022/03/19 11:20:49;;;;;;;6.20;2.80;;;17.30;96.00;;;;;;5077445;28;20032;-59
2022/03/19 11:23:21;;;;;;;7.25;2.40;;;17.50;95.60;;;;;;5078523;28;20039;-59
2022/03/19 11:25:54;;;;;;;5.47;2.78;;;17.50;94.30;;;;;;5078168;28;20041;-59
2022/03/19 11:28:21;;;;;;;5.93;2.42;;;17.80;93.30;;;;;;5078302;28;20032;-60
2022/03/19 11:31:26;;;;;;;4.35;2.80;;;18.10;92.40;;;;;;5078104;28;20094;-58
2022/03/19 11:33:59;;;;;;;4.80;2.58;;;18.60;92.20;;;;;;5077381;28;20041;-59
2022/03/19 11:36:25;;;;;;;5.90;2.53;;;18.70;92.90;;;;;;5061030;28;20292;-58
2022/03/19 11:38:53;;;;;;;4.78;2.92;;;18.80;91.90;;;;;;5077037;28;20056;-59
2022/03/19 11:41:22;;;;;;;4.80;2.95;;;18.50;92.10;;;;;;5077794;28;20281;-58
2022/03/19 11:43:50;;;;;;;5.95;2.53;;;18.80;91.00;;;;;;5077953;28;20024;-58
2022/03/19 11:46:16;;;;;;;7.57;3.10;;;18.90;90.80;;;;;;5077692;28;20273;-58
2022/03/19 11:48:50;;;;;;;5.65;3.15;;;18.40;91.20;;;;;;5077105;28;20036;-58
2022/03/19 11:51:25;;;;;;;3.90;2.72;;;18.60;91.70;;;;;;5078058;28;20166;-58
2022/03/19 11:54:02;;;;;;;6.50;2.78;;;19.50;90.50;;;;;;5076998;28;20043;-59
2022/03/19 11:56:48;;;;;;;6.88;2.75;;;20.40;87.70;;;;;;5077728;28;20066;-58
2022/03/19 11:59:18;;;;;;;6.43;3.08;;;19.30;85.80;;;;;;5077478;28;20032;-59
2022/03/19 12:01:47;;;;;;;7.88;2.97;;;18.60;86.70;;;;;;5077621;28;20036;-58
2022/03/19 12:04:13;;;;;;;5.97;2.80;;;18.50;86.10;;;;;;5076788;28;20032;-60
2022/03/19 12:06:50;;;;;;;6.30;2.55;;;17.90;87.70;;;;;;5076684;28;20044;-58
2022/03/19 12:09:16;;;;;;;5.05;2.70;;;18.30;88.00;;;;;;5076710;28;20177;-58
2022/03/19 12:12:21;;;;;;;6.93;2.90;;;18.50;85.70;;;;;;5077506;28;20447;-58
2022/03/19 12:14:47;;;;;;;6.38;2.40;;;18.40;83.90;;;;;;5078029;28;20036;-58
2022/03/19 12:17:20;;;;;;;9.20;2.50;;;18.70;83.30;;;;;;5077332;28;20345;-58
2022/03/19 12:19:53;;;;;;;6.28;2.58;;;18.60;84.20;;;;;;5077799;28;20377;-59
2022/03/19 12:22:48;;;;;;;9.57;2.70;;;19.50;82.80;;;;;;5076637;28;20039;-59
2022/03/19 12:25:18;;;;;;;6.05;2.50;;;19.20;79.30;;;;;;5076952;28;20140;-59
2022/03/19 12:27:55;;;;;;;8.02;2.50;;;19.20;79.50;;;;;;5077755;28;20035;-58
2022/03/19 12:30:22;;;;;;;6.00;2.40;;;19.30;79.20;;;;;;5076914;28;20103;-58
2022/03/19 12:32:56;;;;;;;5.43;2.55;;;19.60;78.50;;;;;;5077156;28;20028;-58
2022/03/19 12:35:23;;;;;;;8.05;2.20;;;19.40;76.10;;;;;;5077059;28;20519;-59
2022/03/19 12:37:55;;;;;;;5.45;2.22;;;19.10;74.30;;;;;;5077439;28;20078;-58
2022/03/19 12:40:24;;;;;;;4.05;2.15;;;19.50;74.60;;;;;;5076796;28;20424;-58
2022/03/19 12:42:55;;;;;;;4.07;2.30;;;20.10;75.90;;;;;;5076962;28;20032;-58
2022/03/19 12:45:46;;;;;;;8.02;2.42;;;20.60;72.80;;;;;;5076898;28;20036;-58
2022/03/19 12:48:14;;;;;;;7.88;2.40;;;20.20;72.30;;;;;;5076360;28;20028;-58
2022/03/19 12:50:54;;;;;;;7.82;2.15;;;19.50;71.00;;;;;;5076141;28;20067;-58
2022/03/19 12:53:42;;;;;;;7.40;2.40;;;20.10;71.20;;;;;;5076808;28;20035;-58
2022/03/19 12:56:14;;;;;;;6.32;2.20;;;20.10;72.50;;;;;;5076042;28;20354;-59
2022/03/19 12:58:46;;;;;;;5.47;2.00;;;21.20;68.30;;;;;;5076648;28;20043;-59
2022/03/19 13:01:13;;;;;;;5.63;2.55;;;20.80;66.70;;;;;;5075983;28;20029;-59
2022/03/19 13:03:39;;;;;;;5.53;2.20;;;20.30;66.50;;;;;;5076169;28;20037;-59
2022/03/19 13:06:05;;;;;;;7.65;1.73;;;20.60;65.00;;;;;;5075923;28;20085;-58
2022/03/19 13:08:43;;;;;;;8.00;1.60;;;20.40;64.40;;;;;;5076769;28;20039;-59